Terminal Aerodrome Forecast
Issued by NWS Boston, MA

Current Version | Previous Version | Text Only | Print | Product List | Glossary On
Versions: 1 2 3 4 5 6 7 8 9 10 11 12 13 14 15 16 17 18
000 FTUS41 KBOX 241512 AAA TAFORH TAF AMD KORH 241512Z 2415/2512 31011G21KT 2SM -SHRA BR OVC025 FM241630 30011G19KT P6SM SCT025 BKN080 FM250000 29010KT P6SM SKC FM250900 28006KT P6SM SKC FM251100 28010KT P6SM FEW250=

USA.gov is the U.S. government's official web portal to all federal, state and local government web resources and services.